sensor_id;sensor_type;location;lat;lon;timestamp;temperature;humidity
21023;DHT22;10669;51.076;3.714;2022-08-19T00:01:40;20.20;99.90
21023;DHT22;10669;51.076;3.714;2022-08-19T00:04:08;20.20;99.90
21023;DHT22;10669;51.076;3.714;2022-08-19T00:06:38;20.00;99.90
21023;DHT22;10669;51.076;3.714;2022-08-19T00:09:07;20.00;99.90
21023;DHT22;10669;51.076;3.714;2022-08-19T00:11:34;19.90;99.90
21023;DHT22;10669;51.076;3.714;2022-08-19T00:14:03;19.80;99.90
21023;DHT22;10669;51.076;3.714;2022-08-19T00:16:29;19.90;99.90
21023;DHT22;10669;51.076;3.714;2022-08-19T00:18:55;19.80;99.90
21023;DHT22;10669;51.076;3.714;2022-08-19T00:21:23;19.80;99.90
21023;DHT22;10669;51.076;3.714;2022-08-19T00:23:50;19.70;99.90
21023;DHT22;10669;51.076;3.714;2022-08-19T00:26:17;19.80;99.90
21023;DHT22;10669;51.076;3.714;2022-08-19T00:28:43;19.80;99.90
21023;DHT22;10669;51.076;3.714;2022-08-19T00:31:09;19.70;99.90
21023;DHT22;10669;51.076;3.714;2022-08-19T00:33:35;19.70;99.90
21023;DHT22;10669;51.076;3.714;2022-08-19T00:36:04;19.80;99.90
21023;DHT22;10669;51.076;3.714;2022-08-19T00:38:35;19.80;99.90
21023;DHT22;10669;51.076;3.714;2022-08-19T00:41:04;19.70;99.90
21023;DHT22;10669;51.076;3.714;2022-08-19T00:43:31;19.80;99.90
21023;DHT22;10669;51.076;3.714;2022-08-19T00:46:00;19.70;99.90
21023;DHT22;10669;51.076;3.714;2022-08-19T00:48:31;19.70;99.90
21023;DHT22;10669;51.076;3.714;2022-08-19T00:50:58;19.70;99.90
21023;DHT22;10669;51.076;3.714;2022-08-19T00:53:29;19.60;99.90
21023;DHT22;10669;51.076;3.714;2022-08-19T00:55:58;19.60;99.90
21023;DHT22;10669;51.076;3.714;2022-08-19T00:58:31;19.60;99.90
21023;DHT22;10669;51.076;3.714;2022-08-19T01:00:59;19.60;99.90
21023;DHT22;10669;51.076;3.714;2022-08-19T01:03:28;19.50;99.90
21023;DHT22;10669;51.076;3.714;2022-08-19T01:05:54;19.60;99.90
21023;DHT22;10669;51.076;3.714;2022-08-19T01:08:21;19.70;99.90
21023;DHT22;10669;51.076;3.714;2022-08-19T01:10:54;19.70;99.90
21023;DHT22;10669;51.076;3.714;2022-08-19T01:13:24;19.70;99.90
21023;DHT22;10669;51.076;3.714;2022-08-19T01:16:00;19.50;99.90
21023;DHT22;10669;51.076;3.714;2022-08-19T01:18:28;19.40;99.90
21023;DHT22;10669;51.076;3.714;2022-08-19T01:21:02;19.30;99.90
21023;DHT22;10669;51.076;3.714;2022-08-19T01:23:31;19.20;99.90
21023;DHT22;10669;51.076;3.714;2022-08-19T01:26:16;19.20;99.90
21023;DHT22;10669;51.076;3.714;2022-08-19T01:28:44;19.20;99.90
21023;DHT22;10669;51.076;3.714;2022-08-19T01:31:16;19.20;99.90
21023;DHT22;10669;51.076;3.714;2022-08-19T01:33:42;19.10;99.90
21023;DHT22;10669;51.076;3.714;2022-08-19T01:36:19;19.10;99.90
21023;DHT22;10669;51.076;3.714;2022-08-19T01:38:48;19.10;99.90
21023;DHT22;10669;51.076;3.714;2022-08-19T01:41:18;19.10;99.90
21023;DHT22;10669;51.076;3.714;2022-08-19T01:43:43;19.20;99.90
21023;DHT22;10669;51.076;3.714;2022-08-19T01:46:09;19.20;99.90
21023;DHT22;10669;51.076;3.714;2022-08-19T01:48:38;19.00;99.90
21023;DHT22;10669;51.076;3.714;2022-08-19T01:51:05;19.00;99.90
21023;DHT22;10669;51.076;3.714;2022-08-19T01:53:31;19.10;99.90
21023;DHT22;10669;51.076;3.714;2022-08-19T01:55:57;19.00;99.90
21023;DHT22;10669;51.076;3.714;2022-08-19T01:58:29;18.90;99.90
21023;DHT22;10669;51.076;3.714;2022-08-19T02:00:56;18.80;99.90
21023;DHT22;10669;51.076;3.714;2022-08-19T02:03:23;18.80;99.90
21023;DHT22;10669;51.076;3.714;2022-08-19T02:05:57;18.90;99.90
21023;DHT22;10669;51.076;3.714;2022-08-19T02:08:26;18.80;99.90
21023;DHT22;10669;51.076;3.714;2022-08-19T02:10:54;19.00;99.90
21023;DHT22;10669;51.076;3.714;2022-08-19T02:13:23;18.80;99.90
21023;DHT22;10669;51.076;3.714;2022-08-19T02:15:49;18.80;99.90
21023;DHT22;10669;51.076;3.714;2022-08-19T02:18:17;18.70;99.90
21023;DHT22;10669;51.076;3.714;2022-08-19T02:20:45;18.80;99.90
21023;DHT22;10669;51.076;3.714;2022-08-19T02:23:16;18.70;99.90
21023;DHT22;10669;51.076;3.714;2022-08-19T02:25:44;18.80;99.90
21023;DHT22;10669;51.076;3.714;2022-08-19T02:28:11;18.60;99.90
21023;DHT22;10669;51.076;3.714;2022-08-19T02:30:38;18.70;99.90
21023;DHT22;10669;51.076;3.714;2022-08-19T02:33:05;18.70;99.90
21023;DHT22;10669;51.076;3.714;2022-08-19T02:35:31;18.60;99.90
21023;DHT22;10669;51.076;3.714;2022-08-19T02:37:57;18.50;99.90
21023;DHT22;10669;51.076;3.714;2022-08-19T02:40:52;18.50;99.90
21023;DHT22;10669;51.076;3.714;2022-08-19T02:43:20;18.50;99.90
21023;DHT22;10669;51.076;3.714;2022-08-19T02:45:48;18.50;99.90
21023;DHT22;10669;51.076;3.714;2022-08-19T02:48:18;18.50;99.90
21023;DHT22;10669;51.076;3.714;2022-08-19T02:50:47;18.30;99.90
21023;DHT22;10669;51.076;3.714;2022-08-19T02:53:14;18.20;99.90
21023;DHT22;10669;51.076;3.714;2022-08-19T02:55:44;18.20;99.90
21023;DHT22;10669;51.076;3.714;2022-08-19T02:58:14;18.20;99.90
21023;DHT22;10669;51.076;3.714;2022-08-19T03:00:45;18.10;99.90
21023;DHT22;10669;51.076;3.714;2022-08-19T03:03:11;18.20;99.90
21023;DHT22;10669;51.076;3.714;2022-08-19T03:05:38;18.30;99.90
21023;DHT22;10669;51.076;3.714;2022-08-19T03:08:03;18.40;99.90
21023;DHT22;10669;51.076;3.714;2022-08-19T03:10:31;18.30;99.90
21023;DHT22;10669;51.076;3.714;2022-08-19T03:12:57;18.30;99.90
21023;DHT22;10669;51.076;3.714;2022-08-19T03:15:23;18.30;99.90
21023;DHT22;10669;51.076;3.714;2022-08-19T03:17:55;18.20;99.90
21023;DHT22;10669;51.076;3.714;2022-08-19T03:20:21;18.10;99.90
21023;DHT22;10669;51.076;3.714;2022-08-19T03:22:50;18.20;99.90
21023;DHT22;10669;51.076;3.714;2022-08-19T03:25:17;18.20;99.90
21023;DHT22;10669;51.076;3.714;2022-08-19T03:27:43;18.30;99.90
21023;DHT22;10669;51.076;3.714;2022-08-19T03:30:10;18.20;99.90
21023;DHT22;10669;51.076;3.714;2022-08-19T03:32:42;18.30;99.90
21023;DHT22;10669;51.076;3.714;2022-08-19T03:35:09;18.30;99.90
21023;DHT22;10669;51.076;3.714;2022-08-19T03:37:37;18.20;99.90
21023;DHT22;10669;51.076;3.714;2022-08-19T03:40:03;18.30;99.90
21023;DHT22;10669;51.076;3.714;2022-08-19T03:42:31;18.40;99.90
21023;DHT22;10669;51.076;3.714;2022-08-19T03:45:00;18.40;99.90
21023;DHT22;10669;51.076;3.714;2022-08-19T03:47:35;18.40;99.90
21023;DHT22;10669;51.076;3.714;2022-08-19T03:50:03;18.50;99.90
21023;DHT22;10669;51.076;3.714;2022-08-19T03:52:29;18.40;99.90
21023;DHT22;10669;51.076;3.714;2022-08-19T03:54:57;18.30;99.90
21023;DHT22;10669;51.076;3.714;2022-08-19T03:57:25;18.30;99.90
21023;DHT22;10669;51.076;3.714;2022-08-19T03:59:52;18.20;99.90
21023;DHT22;10669;51.076;3.714;2022-08-19T04:02:21;18.20;99.90
21023;DHT22;10669;51.076;3.714;2022-08-19T04:04:47;18.20;99.90
21023;DHT22;10669;51.076;3.714;2022-08-19T04:07:15;18.20;99.90
21023;DHT22;10669;51.076;3.714;2022-08-19T04:09:47;18.10;99.90
21023;DHT22;10669;51.076;3.714;2022-08-19T04:12:15;18.10;99.90
21023;DHT22;10669;51.076;3.714;2022-08-19T04:14:44;18.00;99.90
21023;DHT22;10669;51.076;3.714;2022-08-19T04:17:13;18.10;99.90
21023;DHT22;10669;51.076;3.714;2022-08-19T04:19:42;18.10;99.90
21023;DHT22;10669;51.076;3.714;2022-08-19T04:22:10;18.10;99.90
21023;DHT22;10669;51.076;3.714;2022-08-19T04:24:37;18.10;99.90
21023;DHT22;10669;51.076;3.714;2022-08-19T04:27:08;18.00;99.90
21023;DHT22;10669;51.076;3.714;2022-08-19T04:29:37;18.00;99.90
21023;DHT22;10669;51.076;3.714;2022-08-19T04:32:04;18.00;99.90
21023;DHT22;10669;51.076;3.714;2022-08-19T04:34:30;18.00;99.90
21023;DHT22;10669;51.076;3.714;2022-08-19T04:36:57;18.00;99.90
21023;DHT22;10669;51.076;3.714;2022-08-19T04:39:28;18.00;99.90
21023;DHT22;10669;51.076;3.714;2022-08-19T04:42:13;18.10;99.90
21023;DHT22;10669;51.076;3.714;2022-08-19T04:45:01;18.00;99.90
21023;DHT22;10669;51.076;3.714;2022-08-19T04:47:30;18.10;99.90
21023;DHT22;10669;51.076;3.714;2022-08-19T04:49:56;18.10;99.90
21023;DHT22;10669;51.076;3.714;2022-08-19T04:52:28;18.20;99.90
21023;DHT22;10669;51.076;3.714;2022-08-19T04:54:58;18.20;99.90
21023;DHT22;10669;51.076;3.714;2022-08-19T04:57:26;18.10;99.90
21023;DHT22;10669;51.076;3.714;2022-08-19T04:59:56;18.00;99.90
21023;DHT22;10669;51.076;3.714;2022-08-19T05:02:23;18.00;99.90
21023;DHT22;10669;51.076;3.714;2022-08-19T05:04:57;18.00;99.90
21023;DHT22;10669;51.076;3.714;2022-08-19T05:07:24;18.00;99.90
21023;DHT22;10669;51.076;3.714;2022-08-19T05:09:50;18.00;99.90
21023;DHT22;10669;51.076;3.714;2022-08-19T05:12:16;18.10;99.90
21023;DHT22;10669;51.076;3.714;2022-08-19T05:14:43;18.10;99.90
21023;DHT22;10669;51.076;3.714;2022-08-19T05:17:11;18.20;99.90
21023;DHT22;10669;51.076;3.714;2022-08-19T05:19:37;18.10;99.90
21023;DHT22;10669;51.076;3.714;2022-08-19T05:22:22;18.10;99.90
21023;DHT22;10669;51.076;3.714;2022-08-19T05:25:07;18.20;99.90
21023;DHT22;10669;51.076;3.714;2022-08-19T05:27:35;18.20;99.90
21023;DHT22;10669;51.076;3.714;2022-08-19T05:30:04;18.30;99.90
21023;DHT22;10669;51.076;3.714;2022-08-19T05:32:33;18.50;99.90
21023;DHT22;10669;51.076;3.714;2022-08-19T05:35:04;18.50;99.90
21023;DHT22;10669;51.076;3.714;2022-08-19T05:37:33;18.50;99.90
21023;DHT22;10669;51.076;3.714;2022-08-19T05:39:59;18.60;99.90
21023;DHT22;10669;51.076;3.714;2022-08-19T05:42:25;18.70;99.90
21023;DHT22;10669;51.076;3.714;2022-08-19T05:44:53;18.90;99.90
21023;DHT22;10669;51.076;3.714;2022-08-19T05:47:19;18.80;99.90
21023;DHT22;10669;51.076;3.714;2022-08-19T05:49:45;18.80;99.90
21023;DHT22;10669;51.076;3.714;2022-08-19T05:52:14;18.90;99.90
21023;DHT22;10669;51.076;3.714;2022-08-19T05:54:42;19.00;99.90
21023;DHT22;10669;51.076;3.714;2022-08-19T05:57:09;19.10;99.90
21023;DHT22;10669;51.076;3.714;2022-08-19T05:59:38;19.10;99.90
21023;DHT22;10669;51.076;3.714;2022-08-19T06:02:06;19.10;99.90
21023;DHT22;10669;51.076;3.714;2022-08-19T06:04:34;19.10;99.90
21023;DHT22;10669;51.076;3.714;2022-08-19T06:07:02;19.10;99.90
21023;DHT22;10669;51.076;3.714;2022-08-19T06:09:29;19.20;99.90
21023;DHT22;10669;51.076;3.714;2022-08-19T06:11:59;19.20;99.90
21023;DHT22;10669;51.076;3.714;2022-08-19T06:14:33;19.20;99.90
21023;DHT22;10669;51.076;3.714;2022-08-19T06:17:00;19.30;99.90
21023;DHT22;10669;51.076;3.714;2022-08-19T06:19:28;19.40;99.90
21023;DHT22;10669;51.076;3.714;2022-08-19T06:21:56;19.50;99.90
21023;DHT22;10669;51.076;3.714;2022-08-19T06:24:26;19.50;99.90
21023;DHT22;10669;51.076;3.714;2022-08-19T06:26:54;19.60;99.90
21023;DHT22;10669;51.076;3.714;2022-08-19T06:29:24;19.80;99.90
21023;DHT22;10669;51.076;3.714;2022-08-19T06:31:52;19.70;99.90
21023;DHT22;10669;51.076;3.714;2022-08-19T06:34:18;19.70;99.90
21023;DHT22;10669;51.076;3.714;2022-08-19T06:36:47;19.70;99.90
21023;DHT22;10669;51.076;3.714;2022-08-19T06:39:21;19.90;99.90
21023;DHT22;10669;51.076;3.714;2022-08-19T06:41:50;20.20;99.90
21023;DHT22;10669;51.076;3.714;2022-08-19T06:44:23;20.50;99.90
21023;DHT22;10669;51.076;3.714;2022-08-19T06:46:49;20.70;99.90
21023;DHT22;10669;51.076;3.714;2022-08-19T06:49:16;20.80;99.90
21023;DHT22;10669;51.076;3.714;2022-08-19T06:51:44;20.80;99.90
21023;DHT22;10669;51.076;3.714;2022-08-19T06:54:10;20.80;99.90
21023;DHT22;10669;51.076;3.714;2022-08-19T06:56:36;20.70;99.90
21023;DHT22;10669;51.076;3.714;2022-08-19T06:59:12;20.60;99.90
21023;DHT22;10669;51.076;3.714;2022-08-19T07:01:48;20.50;99.90
21023;DHT22;10669;51.076;3.714;2022-08-19T07:04:18;20.70;99.90
21023;DHT22;10669;51.076;3.714;2022-08-19T07:06:44;20.80;99.90
21023;DHT22;10669;51.076;3.714;2022-08-19T07:09:12;20.90;99.90
21023;DHT22;10669;51.076;3.714;2022-08-19T07:11:44;20.90;99.90
21023;DHT22;10669;51.076;3.714;2022-08-19T07:14:10;20.90;99.90
21023;DHT22;10669;51.076;3.714;2022-08-19T07:16:35;20.80;99.90
21023;DHT22;10669;51.076;3.714;2022-08-19T07:19:01;20.80;99.90
21023;DHT22;10669;51.076;3.714;2022-08-19T07:21:28;21.00;99.90
21023;DHT22;10669;51.076;3.714;2022-08-19T07:23:55;20.90;99.90
21023;DHT22;10669;51.076;3.714;2022-08-19T07:26:25;21.00;99.90
21023;DHT22;10669;51.076;3.714;2022-08-19T07:28:51;20.70;99.90
21023;DHT22;10669;51.076;3.714;2022-08-19T07:31:20;20.60;99.90
21023;DHT22;10669;51.076;3.714;2022-08-19T07:33:47;20.60;99.90
21023;DHT22;10669;51.076;3.714;2022-08-19T07:36:15;20.80;99.90
21023;DHT22;10669;51.076;3.714;2022-08-19T07:38:44;21.00;99.90
21023;DHT22;10669;51.076;3.714;2022-08-19T07:41:17;21.00;99.90
21023;DHT22;10669;51.076;3.714;2022-08-19T07:43:43;21.10;99.90
21023;DHT22;10669;51.076;3.714;2022-08-19T07:46:10;21.10;99.90
21023;DHT22;10669;51.076;3.714;2022-08-19T07:48:35;21.20;99.90
21023;DHT22;10669;51.076;3.714;2022-08-19T07:51:04;21.30;99.90
21023;DHT22;10669;51.076;3.714;2022-08-19T07:53:31;21.40;99.90
21023;DHT22;10669;51.076;3.714;2022-08-19T07:56:00;21.40;99.90
21023;DHT22;10669;51.076;3.714;2022-08-19T07:58:36;21.30;99.90
21023;DHT22;10669;51.076;3.714;2022-08-19T08:01:03;21.20;99.90
21023;DHT22;10669;51.076;3.714;2022-08-19T08:03:29;21.10;99.90
21023;DHT22;10669;51.076;3.714;2022-08-19T08:06:15;21.00;99.90
21023;DHT22;10669;51.076;3.714;2022-08-19T08:09:00;21.00;99.90
21023;DHT22;10669;51.076;3.714;2022-08-19T08:11:56;20.80;99.90
21023;DHT22;10669;51.076;3.714;2022-08-19T08:14:26;20.90;99.90
21023;DHT22;10669;51.076;3.714;2022-08-19T08:16:52;20.90;99.90
21023;DHT22;10669;51.076;3.714;2022-08-19T08:19:23;20.90;99.90
21023;DHT22;10669;51.076;3.714;2022-08-19T08:21:51;21.00;99.90
21023;DHT22;10669;51.076;3.714;2022-08-19T08:24:18;21.20;99.90
21023;DHT22;10669;51.076;3.714;2022-08-19T08:26:44;21.40;99.90
21023;DHT22;10669;51.076;3.714;2022-08-19T08:29:13;21.40;99.90
21023;DHT22;10669;51.076;3.714;2022-08-19T08:31:42;21.50;99.90
21023;DHT22;10669;51.076;3.714;2022-08-19T08:34:08;21.50;99.90
21023;DHT22;10669;51.076;3.714;2022-08-19T08:36:38;21.60;99.90
21023;DHT22;10669;51.076;3.714;2022-08-19T08:39:09;21.70;99.90
21023;DHT22;10669;51.076;3.714;2022-08-19T08:41:58;21.80;99.90
21023;DHT22;10669;51.076;3.714;2022-08-19T08:44:43;22.10;99.90
21023;DHT22;10669;51.076;3.714;2022-08-19T08:47:17;22.30;99.90
21023;DHT22;10669;51.076;3.714;2022-08-19T08:49:48;22.30;99.90
21023;DHT22;10669;51.076;3.714;2022-08-19T08:52:32;22.40;99.90
21023;DHT22;10669;51.076;3.714;2022-08-19T08:55:18;22.10;99.90
21023;DHT22;10669;51.076;3.714;2022-08-19T09:00:19;21.90;99.90
21023;DHT22;10669;51.076;3.714;2022-08-19T09:02:46;21.90;99.90
21023;DHT22;10669;51.076;3.714;2022-08-19T09:05:12;22.10;99.90
21023;DHT22;10669;51.076;3.714;2022-08-19T09:08:13;22.20;99.90
21023;DHT22;10669;51.076;3.714;2022-08-19T09:10:51;22.30;99.90
21023;DHT22;10669;51.076;3.714;2022-08-19T09:13:32;22.30;99.90
21023;DHT22;10669;51.076;3.714;2022-08-19T09:16:11;22.30;99.90
21023;DHT22;10669;51.076;3.714;2022-08-19T09:18:49;22.30;99.90
21023;DHT22;10669;51.076;3.714;2022-08-19T09:21:19;22.60;99.90
21023;DHT22;10669;51.076;3.714;2022-08-19T09:23:46;22.70;99.90
21023;DHT22;10669;51.076;3.714;2022-08-19T09:26:15;22.70;99.90
21023;DHT22;10669;51.076;3.714;2022-08-19T09:28:42;22.80;99.90
21023;DHT22;10669;51.076;3.714;2022-08-19T09:31:12;22.80;99.90
21023;DHT22;10669;51.076;3.714;2022-08-19T09:33:38;22.90;99.90
21023;DHT22;10669;51.076;3.714;2022-08-19T09:36:10;22.70;99.90
21023;DHT22;10669;51.076;3.714;2022-08-19T09:38:36;22.80;99.90
21023;DHT22;10669;51.076;3.714;2022-08-19T09:41:08;22.80;99.90
21023;DHT22;10669;51.076;3.714;2022-08-19T09:43:37;23.00;99.90
21023;DHT22;10669;51.076;3.714;2022-08-19T09:46:03;23.30;99.90
21023;DHT22;10669;51.076;3.714;2022-08-19T09:48:41;23.40;99.90
21023;DHT22;10669;51.076;3.714;2022-08-19T09:51:13;23.60;99.90
21023;DHT22;10669;51.076;3.714;2022-08-19T09:53:46;23.50;99.90
21023;DHT22;10669;51.076;3.714;2022-08-19T09:56:13;23.60;99.90
21023;DHT22;10669;51.076;3.714;2022-08-19T09:58:39;23.80;99.90
21023;DHT22;10669;51.076;3.714;2022-08-19T10:01:06;23.90;99.90
21023;DHT22;10669;51.076;3.714;2022-08-19T10:03:33;23.90;99.90
21023;DHT22;10669;51.076;3.714;2022-08-19T10:06:03;24.00;99.90
21023;DHT22;10669;51.076;3.714;2022-08-19T10:08:32;23.90;99.90
21023;DHT22;10669;51.076;3.714;2022-08-19T10:10:59;23.90;99.90
21023;DHT22;10669;51.076;3.714;2022-08-19T10:13:28;23.60;99.90
21023;DHT22;10669;51.076;3.714;2022-08-19T10:15:56;23.50;99.90
21023;DHT22;10669;51.076;3.714;2022-08-19T10:18:27;23.40;99.90
21023;DHT22;10669;51.076;3.714;2022-08-19T10:21:04;23.30;99.90
21023;DHT22;10669;51.076;3.714;2022-08-19T10:23:33;23.20;99.90
21023;DHT22;10669;51.076;3.714;2022-08-19T10:26:04;23.30;99.90
21023;DHT22;10669;51.076;3.714;2022-08-19T10:28:34;23.30;99.90
21023;DHT22;10669;51.076;3.714;2022-08-19T10:31:07;23.60;99.90
21023;DHT22;10669;51.076;3.714;2022-08-19T10:33:34;23.90;99.90
21023;DHT22;10669;51.076;3.714;2022-08-19T10:36:01;24.10;99.90
21023;DHT22;10669;51.076;3.714;2022-08-19T10:38:27;24.40;99.90
21023;DHT22;10669;51.076;3.714;2022-08-19T10:40:54;24.50;99.90
21023;DHT22;10669;51.076;3.714;2022-08-19T10:43:19;24.50;99.90
21023;DHT22;10669;51.076;3.714;2022-08-19T10:45:52;24.50;99.90
21023;DHT22;10669;51.076;3.714;2022-08-19T10:48:19;24.60;99.90
21023;DHT22;10669;51.076;3.714;2022-08-19T10:50:44;24.70;99.90
21023;DHT22;10669;51.076;3.714;2022-08-19T10:53:28;24.50;99.90
21023;DHT22;10669;51.076;3.714;2022-08-19T10:55:54;24.30;99.90
21023;DHT22;10669;51.076;3.714;2022-08-19T10:58:38;24.20;99.90
21023;DHT22;10669;51.076;3.714;2022-08-19T11:01:04;24.10;99.90
21023;DHT22;10669;51.076;3.714;2022-08-19T11:03:30;24.10;99.90
21023;DHT22;10669;51.076;3.714;2022-08-19T11:06:00;24.30;99.90
21023;DHT22;10669;51.076;3.714;2022-08-19T11:08:26;24.30;99.90
21023;DHT22;10669;51.076;3.714;2022-08-19T11:10:53;24.40;99.90
21023;DHT22;10669;51.076;3.714;2022-08-19T11:13:22;24.40;99.90
21023;DHT22;10669;51.076;3.714;2022-08-19T11:16:04;24.20;99.90
21023;DHT22;10669;51.076;3.714;2022-08-19T11:18:30;24.20;99.90
21023;DHT22;10669;51.076;3.714;2022-08-19T11:21:15;24.30;99.90
21023;DHT22;10669;51.076;3.714;2022-08-19T11:23:43;24.60;99.90
21023;DHT22;10669;51.076;3.714;2022-08-19T11:26:09;24.90;99.90
21023;DHT22;10669;51.076;3.714;2022-08-19T11:28:35;24.90;99.90
21023;DHT22;10669;51.076;3.714;2022-08-19T11:31:01;24.90;99.90
21023;DHT22;10669;51.076;3.714;2022-08-19T11:33:29;24.90;99.90
21023;DHT22;10669;51.076;3.714;2022-08-19T11:35:59;24.90;99.90
21023;DHT22;10669;51.076;3.714;2022-08-19T11:38:26;24.80;99.90
21023;DHT22;10669;51.076;3.714;2022-08-19T11:41:00;24.70;99.90
21023;DHT22;10669;51.076;3.714;2022-08-19T11:43:27;24.80;99.90
21023;DHT22;10669;51.076;3.714;2022-08-19T11:45:54;24.90;99.90
21023;DHT22;10669;51.076;3.714;2022-08-19T11:48:20;25.10;99.90
21023;DHT22;10669;51.076;3.714;2022-08-19T11:50:52;24.80;99.90
21023;DHT22;10669;51.076;3.714;2022-08-19T11:53:20;24.50;99.90
21023;DHT22;10669;51.076;3.714;2022-08-19T11:55:47;24.20;99.90
21023;DHT22;10669;51.076;3.714;2022-08-19T11:58:14;24.00;99.90
21023;DHT22;10669;51.076;3.714;2022-08-19T12:00:40;23.90;99.90
21023;DHT22;10669;51.076;3.714;2022-08-19T12:03:06;24.00;99.90
21023;DHT22;10669;51.076;3.714;2022-08-19T12:05:33;24.10;99.90
21023;DHT22;10669;51.076;3.714;2022-08-19T12:07:58;24.40;99.90
21023;DHT22;10669;51.076;3.714;2022-08-19T12:10:24;24.60;99.90
21023;DHT22;10669;51.076;3.714;2022-08-19T12:12:50;24.80;99.90
21023;DHT22;10669;51.076;3.714;2022-08-19T12:15:15;24.80;99.90
21023;DHT22;10669;51.076;3.714;2022-08-19T12:17:42;25.00;99.90
21023;DHT22;10669;51.076;3.714;2022-08-19T12:20:10;25.20;99.90
21023;DHT22;10669;51.076;3.714;2022-08-19T12:22:37;25.30;99.90
21023;DHT22;10669;51.076;3.714;2022-08-19T12:25:05;25.20;99.90
21023;DHT22;10669;51.076;3.714;2022-08-19T12:27:31;25.30;99.90
21023;DHT22;10669;51.076;3.714;2022-08-19T12:29:57;25.40;99.90
21023;DHT22;10669;51.076;3.714;2022-08-19T12:32:23;25.50;99.90
21023;DHT22;10669;51.076;3.714;2022-08-19T12:34:50;25.60;99.90
21023;DHT22;10669;51.076;3.714;2022-08-19T12:37:16;25.80;99.90
21023;DHT22;10669;51.076;3.714;2022-08-19T12:39:43;26.40;99.90
21023;DHT22;10669;51.076;3.714;2022-08-19T12:42:10;26.60;99.90
21023;DHT22;10669;51.076;3.714;2022-08-19T12:44:37;26.30;99.90
21023;DHT22;10669;51.076;3.714;2022-08-19T12:47:03;26.10;99.90
21023;DHT22;10669;51.076;3.714;2022-08-19T12:49:30;26.20;99.90
21023;DHT22;10669;51.076;3.714;2022-08-19T12:51:57;26.20;99.90
21023;DHT22;10669;51.076;3.714;2022-08-19T12:54:23;26.20;99.90
21023;DHT22;10669;51.076;3.714;2022-08-19T12:56:49;26.20;99.90
21023;DHT22;10669;51.076;3.714;2022-08-19T12:59:15;25.90;99.90
21023;DHT22;10669;51.076;3.714;2022-08-19T13:01:43;25.80;99.90
21023;DHT22;10669;51.076;3.714;2022-08-19T13:04:09;25.70;99.90
21023;DHT22;10669;51.076;3.714;2022-08-19T13:06:35;25.60;99.90
21023;DHT22;10669;51.076;3.714;2022-08-19T13:09:02;25.70;99.90
21023;DHT22;10669;51.076;3.714;2022-08-19T13:11:28;25.50;99.90
21023;DHT22;10669;51.076;3.714;2022-08-19T13:13:58;25.20;99.90
21023;DHT22;10669;51.076;3.714;2022-08-19T13:16:23;24.90;99.90
21023;DHT22;10669;51.076;3.714;2022-08-19T13:18:49;24.70;99.90
21023;DHT22;10669;51.076;3.714;2022-08-19T13:21:20;24.60;99.90
21023;DHT22;10669;51.076;3.714;2022-08-19T13:23:47;24.40;99.90
21023;DHT22;10669;51.076;3.714;2022-08-19T13:26:13;24.30;99.90
21023;DHT22;10669;51.076;3.714;2022-08-19T13:28:40;24.10;99.90
21023;DHT22;10669;51.076;3.714;2022-08-19T13:31:26;23.60;99.90
21023;DHT22;10669;51.076;3.714;2022-08-19T13:34:11;23.20;99.90
21023;DHT22;10669;51.076;3.714;2022-08-19T13:36:38;22.80;99.90
21023;DHT22;10669;51.076;3.714;2022-08-19T13:39:05;22.90;99.90
21023;DHT22;10669;51.076;3.714;2022-08-19T13:41:31;22.80;99.90
21023;DHT22;10669;51.076;3.714;2022-08-19T13:43:57;22.80;99.90
21023;DHT22;10669;51.076;3.714;2022-08-19T13:46:24;23.00;99.90
21023;DHT22;10669;51.076;3.714;2022-08-19T13:48:49;23.30;99.90
21023;DHT22;10669;51.076;3.714;2022-08-19T13:51:16;23.50;99.90
21023;DHT22;10669;51.076;3.714;2022-08-19T13:53:43;23.60;99.90
21023;DHT22;10669;51.076;3.714;2022-08-19T13:56:11;23.70;99.90
21023;DHT22;10669;51.076;3.714;2022-08-19T13:58:37;23.90;99.90
21023;DHT22;10669;51.076;3.714;2022-08-19T14:01:04;24.10;99.90
21023;DHT22;10669;51.076;3.714;2022-08-19T14:03:30;24.40;99.90
21023;DHT22;10669;51.076;3.714;2022-08-19T14:05:56;24.90;99.90
21023;DHT22;10669;51.076;3.714;2022-08-19T14:08:22;25.10;99.90
21023;DHT22;10669;51.076;3.714;2022-08-19T14:10:48;25.50;99.90
21023;DHT22;10669;51.076;3.714;2022-08-19T14:13:16;25.60;99.90
21023;DHT22;10669;51.076;3.714;2022-08-19T14:15:42;25.50;99.90
21023;DHT22;10669;51.076;3.714;2022-08-19T14:18:08;25.50;99.90
21023;DHT22;10669;51.076;3.714;2022-08-19T14:20:35;25.50;99.90
21023;DHT22;10669;51.076;3.714;2022-08-19T14:23:01;25.50;99.90
21023;DHT22;10669;51.076;3.714;2022-08-19T14:25:28;25.70;99.90
21023;DHT22;10669;51.076;3.714;2022-08-19T14:27:55;25.80;99.90
21023;DHT22;10669;51.076;3.714;2022-08-19T14:30:24;26.00;99.90
21023;DHT22;10669;51.076;3.714;2022-08-19T14:32:54;25.80;99.90
21023;DHT22;10669;51.076;3.714;2022-08-19T14:35:20;25.50;99.90
21023;DHT22;10669;51.076;3.714;2022-08-19T14:37:48;25.30;99.90
21023;DHT22;10669;51.076;3.714;2022-08-19T14:40:17;25.20;99.90
21023;DHT22;10669;51.076;3.714;2022-08-19T14:42:43;25.60;99.90
21023;DHT22;10669;51.076;3.714;2022-08-19T14:45:10;25.90;99.90
21023;DHT22;10669;51.076;3.714;2022-08-19T14:47:36;26.20;99.90
21023;DHT22;10669;51.076;3.714;2022-08-19T14:50:05;26.50;99.90
21023;DHT22;10669;51.076;3.714;2022-08-19T14:52:32;26.50;99.90
21023;DHT22;10669;51.076;3.714;2022-08-19T14:54:57;26.70;99.90
21023;DHT22;10669;51.076;3.714;2022-08-19T14:57:23;27.00;99.90
21023;DHT22;10669;51.076;3.714;2022-08-19T14:59:48;27.10;99.90
21023;DHT22;10669;51.076;3.714;2022-08-19T15:02:15;27.30;99.90
21023;DHT22;10669;51.076;3.714;2022-08-19T15:04:41;27.10;99.90
21023;DHT22;10669;51.076;3.714;2022-08-19T15:07:07;27.40;99.90
21023;DHT22;10669;51.076;3.714;2022-08-19T15:09:32;27.70;99.90
21023;DHT22;10669;51.076;3.714;2022-08-19T15:11:59;28.10;99.90
21023;DHT22;10669;51.076;3.714;2022-08-19T15:14:26;29.00;99.90
21023;DHT22;10669;51.076;3.714;2022-08-19T15:16:52;29.70;99.90
21023;DHT22;10669;51.076;3.714;2022-08-19T15:19:18;29.70;99.90
21023;DHT22;10669;51.076;3.714;2022-08-19T15:21:44;29.50;99.90
21023;DHT22;10669;51.076;3.714;2022-08-19T15:24:10;29.40;99.90
21023;DHT22;10669;51.076;3.714;2022-08-19T15:26:35;30.10;99.90
21023;DHT22;10669;51.076;3.714;2022-08-19T15:29:02;30.90;99.90
21023;DHT22;10669;51.076;3.714;2022-08-19T15:31:28;30.60;99.90
21023;DHT22;10669;51.076;3.714;2022-08-19T15:33:57;29.70;99.90
21023;DHT22;10669;51.076;3.714;2022-08-19T15:36:23;28.40;99.90
21023;DHT22;10669;51.076;3.714;2022-08-19T15:38:49;27.60;99.90
21023;DHT22;10669;51.076;3.714;2022-08-19T15:41:21;27.20;99.90
21023;DHT22;10669;51.076;3.714;2022-08-19T15:43:55;26.60;99.90